createdAt,value
2022-08-05T00:00:51.606Z,24.44
2022-08-05T00:03:18.197Z,24.45
2022-08-05T00:06:06.539Z,24.44
2022-08-05T00:08:34.846Z,24.42
2022-08-05T00:11:05.523Z,24.44
2022-08-05T00:13:52.910Z,24.46
2022-08-05T00:16:36.007Z,24.47
2022-08-05T00:19:03.926Z,24.49
2022-08-05T00:21:30.752Z,24.53
2022-08-05T00:24:10.155Z,24.59
2022-08-05T00:26:38.119Z,24.61
2022-08-05T00:29:04.684Z,24.58
2022-08-05T00:31:41.340Z,24.53
2022-08-05T00:34:53.414Z,24.48
2022-08-05T00:37:10.309Z,24.43
2022-08-05T00:39:44.330Z,24.37
2022-08-05T00:42:33.008Z,24.20
2022-08-05T00:45:00.167Z,24.08
2022-08-05T00:47:31.664Z,24.05
2022-08-05T00:50:13.409Z,24.07
2022-08-05T00:52:40.158Z,24.11
2022-08-05T00:55:06.947Z,24.16
2022-08-05T00:57:55.468Z,24.19
2022-08-05T01:00:20.230Z,24.13
2022-08-05T01:02:50.221Z,24.05
2022-08-05T01:05:16.868Z,24.00
2022-08-05T01:08:40.760Z,23.97
2022-08-05T01:10:41.823Z,23.94
2022-08-05T01:13:57.421Z,23.85
2022-08-05T01:16:40.273Z,23.91
2022-08-05T01:19:56.319Z,23.85
2022-08-05T01:22:58.236Z,23.72
2022-08-05T01:25:55.993Z,23.56
2022-08-05T01:28:39.518Z,23.42
2022-08-05T01:31:28.952Z,23.29
2022-08-05T01:34:13.956Z,23.05
2022-08-05T01:36:47.658Z,22.92
2022-08-05T01:39:45.637Z,22.89
2022-08-05T01:42:06.389Z,22.88
2022-08-05T01:44:37.663Z,22.87
2022-08-05T01:47:05.217Z,22.83
2022-08-05T01:50:00.446Z,22.77
2022-08-05T01:52:22.918Z,22.64
2022-08-05T01:54:53.315Z,22.56
2022-08-05T01:58:10.214Z,22.54
2022-08-05T02:00:15.213Z,22.52
2022-08-05T02:02:53.709Z,22.53
2022-08-05T02:05:25.174Z,22.53
2022-08-05T02:07:59.925Z,22.59
2022-08-05T02:10:32.925Z,22.61
2022-08-05T02:13:19.032Z,22.66
2022-08-05T02:15:53.933Z,22.68
2022-08-05T02:18:34.573Z,22.72
2022-08-05T02:21:14.784Z,22.75
2022-08-05T02:23:44.473Z,22.74
2022-08-05T02:26:17.222Z,22.74
2022-08-05T02:28:46.363Z,22.75
2022-08-05T02:31:21.743Z,22.78
2022-08-05T02:33:58.078Z,22.77
2022-08-05T02:36:27.553Z,22.76
2022-08-05T02:38:58.733Z,22.79
2022-08-05T02:41:29.032Z,22.77
2022-08-05T02:44:13.569Z,22.73
2022-08-05T02:46:58.702Z,22.67
2022-08-05T02:49:36.059Z,22.60
2022-08-05T02:52:09.135Z,22.53
2022-08-05T02:54:37.697Z,22.45
2022-08-05T02:58:12.297Z,22.37
2022-08-05T02:59:59.475Z,22.25
2022-08-05T03:02:33.927Z,22.20
2022-08-05T03:05:02.583Z,22.13
2022-08-05T03:08:00.559Z,22.10
2022-08-05T03:10:21.858Z,22.07
2022-08-05T03:12:52.128Z,22.06
2022-08-05T03:15:20.588Z,22.08
2022-08-05T03:17:47.109Z,22.12
2022-08-05T03:20:13.968Z,22.17
2022-08-05T03:22:46.896Z,22.21
2022-08-05T03:25:33.078Z,22.21
2022-08-05T03:28:08.455Z,22.21
2022-08-05T03:30:35.786Z,22.18
2022-08-05T03:33:04.383Z,22.18
2022-08-05T03:35:34.041Z,22.17
2022-08-05T03:38:10.503Z,22.20
2022-08-05T03:40:45.222Z,22.26
2022-08-05T03:43:59.257Z,22.27
2022-08-05T03:46:01.764Z,22.28
2022-08-05T03:48:29.663Z,22.31
2022-08-05T03:52:37.042Z,22.36
2022-08-05T03:55:51.843Z,22.44
2022-08-05T03:57:16.589Z,22.44
2022-08-05T03:59:55.001Z,22.43
2022-08-05T04:02:38.976Z,22.41
2022-08-05T04:05:12.908Z,22.42
2022-08-05T04:07:57.919Z,22.43
2022-08-05T04:10:30.856Z,22.46
2022-08-05T04:13:00.589Z,22.51
2022-08-05T04:15:33.172Z,22.51
2022-08-05T04:18:07.168Z,22.40
2022-08-05T04:20:36.142Z,22.45
2022-08-05T04:23:02.716Z,22.47
2022-08-05T04:25:56.472Z,22.47
2022-08-05T04:28:17.490Z,22.46
2022-08-05T04:30:44.795Z,22.46
2022-08-05T04:33:12.183Z,22.46
2022-08-05T04:36:16.661Z,22.47
2022-08-05T04:38:39.869Z,22.47
2022-08-05T04:41:09.635Z,22.48
2022-08-05T04:43:38.058Z,22.48
2022-08-05T04:46:13.256Z,22.49
2022-08-05T04:48:39.963Z,22.50
2022-08-05T04:51:11.159Z,22.53
2022-08-05T04:53:38.568Z,22.96
2022-08-05T04:56:32.275Z,23.40
2022-08-05T04:58:54.436Z,24.00
2022-08-05T05:02:06.139Z,24.44
2022-08-05T05:04:07.627Z,24.82
2022-08-05T05:06:39.618Z,25.01
2022-08-05T05:09:14.260Z,25.20
2022-08-05T05:11:55.541Z,25.31
2022-08-05T05:14:31.315Z,25.35
2022-08-05T05:17:01.805Z,25.20
2022-08-05T05:19:36.858Z,25.00
2022-08-05T05:22:24.283Z,25.03
2022-08-05T05:24:56.787Z,24.93
2022-08-05T05:27:44.525Z,24.94
2022-08-05T05:30:29.508Z,25.00
2022-08-05T05:33:00.083Z,24.98
2022-08-05T05:35:37.763Z,25.10
2022-08-05T05:38:09.254Z,25.13
2022-08-05T05:40:45.062Z,25.05
2022-08-05T05:43:28.078Z,24.84
2022-08-05T05:46:03.685Z,24.23
2022-08-05T05:48:32.079Z,23.63
2022-08-05T05:51:14.929Z,23.14
2022-08-05T05:53:54.102Z,23.16
2022-08-05T05:56:33.065Z,23.36
2022-08-05T05:59:03.292Z,23.63
2022-08-05T06:01:38.197Z,23.56
2022-08-05T06:04:11.668Z,23.41
2022-08-05T06:06:41.747Z,23.36
2022-08-05T06:09:08.685Z,23.06
2022-08-05T06:11:35.527Z,22.86
2022-08-05T06:14:06.184Z,22.91
2022-08-05T06:16:37.306Z,22.87
2022-08-05T06:19:05.999Z,22.76
2022-08-05T06:21:37.658Z,22.63
2022-08-05T06:24:11.524Z,22.40
2022-08-05T06:26:39.137Z,22.34
2022-08-05T06:29:23.827Z,22.31
2022-08-05T06:31:52.724Z,22.46
2022-08-05T06:34:20.055Z,22.45
2022-08-05T06:36:58.243Z,22.50
2022-08-05T06:39:27.860Z,22.45
2022-08-05T06:42:02.038Z,22.52
2022-08-05T06:44:30.783Z,22.53
2022-08-05T06:46:57.454Z,22.59
2022-08-05T06:50:00.138Z,22.93
2022-08-05T06:52:37.258Z,22.97
2022-08-05T06:54:57.678Z,22.82
2022-08-05T06:57:57.360Z,22.76
2022-08-05T07:00:11.339Z,22.70
2022-08-05T07:02:46.376Z,22.82
2022-08-05T07:05:18.650Z,23.14
2022-08-05T07:07:48.908Z,23.31
2022-08-05T07:10:16.498Z,23.24
2022-08-05T07:13:02.612Z,23.05
2022-08-05T07:16:01.286Z,23.34
2022-08-05T07:18:31.861Z,23.35
2022-08-05T07:20:58.695Z,23.20
2022-08-05T07:23:33.720Z,22.94
2022-08-05T07:26:03.555Z,22.54
2022-08-05T07:28:30.147Z,22.42
2022-08-05T07:30:56.857Z,22.65
2022-08-05T07:33:35.183Z,23.13
2022-08-05T07:36:21.170Z,23.55
2022-08-05T07:38:49.031Z,23.40
2022-08-05T07:42:14.678Z,23.12
2022-08-05T07:44:14.353Z,22.92
2022-08-05T07:46:48.539Z,22.79
2022-08-05T07:49:18.164Z,22.57
2022-08-05T07:51:48.635Z,22.27
2022-08-05T07:54:23.216Z,22.43
2022-08-05T07:57:13.575Z,22.82
2022-08-05T07:59:41.202Z,22.95
2022-08-05T08:02:15.435Z,22.97
2022-08-05T08:04:45.069Z,22.82
2022-08-05T08:07:12.249Z,22.62
2022-08-05T08:09:38.825Z,22.38
2022-08-05T08:12:19.959Z,22.41
2022-08-05T08:14:52.677Z,23.09
2022-08-05T08:17:21.227Z,23.72
2022-08-05T08:20:21.167Z,24.27
2022-08-05T08:22:35.687Z,24.63
2022-08-05T08:25:03.182Z,24.85
2022-08-05T08:27:39.980Z,24.93
2022-08-05T08:30:28.607Z,25.10
2022-08-05T08:33:02.627Z,25.13
2022-08-05T08:35:34.968Z,24.77
2022-08-05T08:38:07.518Z,24.58
2022-08-05T08:40:35.392Z,24.39
2022-08-05T08:45:16.652Z,24.20
2022-08-05T08:45:52.904Z,23.60
2022-08-05T08:48:36.196Z,23.33
2022-08-05T08:51:54.528Z,23.49
2022-08-05T08:53:55.215Z,23.18
2022-08-05T08:56:23.598Z,23.01
2022-08-05T08:58:54.342Z,22.79
2022-08-05T09:01:21.730Z,22.60
2022-08-05T09:03:54.602Z,22.54
2022-08-05T09:06:24.255Z,22.49
2022-08-05T09:08:55.971Z,22.59
2022-08-05T09:11:52.748Z,22.79
2022-08-05T09:14:56.488Z,22.89
2022-08-05T09:17:00.439Z,22.89
2022-08-05T09:19:36.271Z,22.80
2022-08-05T09:22:31.285Z,22.81
2022-08-05T09:25:14.055Z,23.09
2022-08-05T09:28:04.082Z,23.61
2022-08-05T09:30:34.565Z,24.07
2022-08-05T09:33:02.322Z,24.04
2022-08-05T09:35:29.458Z,24.12
2022-08-05T09:38:12.853Z,24.30
2022-08-05T09:40:51.794Z,24.73
2022-08-05T09:43:41.322Z,24.85
2022-08-05T09:46:32.770Z,24.46
2022-08-05T09:49:06.727Z,24.38
2022-08-05T09:51:40.035Z,24.44
2022-08-05T09:54:09.445Z,24.55
2022-08-05T09:56:38.090Z,24.31
2022-08-05T09:59:07.727Z,24.02
2022-08-05T10:01:36.963Z,24.25
2022-08-05T10:04:16.199Z,24.71
2022-08-05T10:06:59.264Z,24.79
2022-08-05T10:09:29.242Z,24.98
2022-08-05T10:12:18.664Z,25.23
2022-08-05T10:15:16.225Z,24.90
2022-08-05T10:17:54.442Z,24.76
2022-08-05T10:20:23.930Z,24.69
2022-08-05T10:22:52.661Z,24.67
2022-08-05T10:25:19.613Z,24.83
2022-08-05T10:28:13.272Z,24.66
2022-08-05T10:31:20.479Z,24.63
2022-08-05T10:33:28.890Z,25.00
2022-08-05T10:35:59.718Z,24.78
2022-08-05T10:38:29.163Z,24.53
2022-08-05T10:41:23.444Z,24.48
2022-08-05T10:44:07.051Z,24.64
2022-08-05T10:46:54.690Z,24.52
2022-08-05T10:49:27.594Z,24.43
2022-08-05T10:52:03.347Z,24.39
2022-08-05T10:54:56.987Z,24.16
2022-08-05T10:57:31.747Z,23.92
2022-08-05T11:00:19.081Z,23.67
2022-08-05T11:03:24.811Z,23.61
2022-08-05T11:06:08.494Z,23.67
2022-08-05T11:09:10.747Z,23.64
2022-08-05T11:11:52.886Z,23.70
2022-08-05T11:14:57.886Z,23.66
2022-08-05T11:18:00.349Z,23.58
2022-08-05T11:20:32.490Z,23.41
2022-08-05T11:23:05.822Z,23.36
2022-08-05T11:26:04.763Z,23.46
2022-08-05T11:28:22.266Z,23.66
2022-08-05T11:30:55.515Z,23.73
2022-08-05T11:33:43.789Z,23.89
2022-08-05T11:36:34.729Z,23.93
2022-08-05T11:39:09.190Z,24.19
2022-08-05T11:42:02.010Z,24.37
2022-08-05T11:44:40.506Z,24.76
2022-08-05T11:47:11.115Z,24.90
2022-08-05T11:49:43.268Z,25.13
2022-08-05T11:52:24.347Z,25.06
2022-08-05T11:54:57.486Z,24.82
2022-08-05T11:57:39.360Z,24.80
2022-08-05T12:00:30.982Z,24.74
2022-08-05T12:02:57.852Z,24.79
2022-08-05T12:05:32.227Z,25.04
2022-08-05T12:08:10.053Z,25.36
2022-08-05T12:10:45.472Z,25.48
2022-08-05T12:13:18.953Z,25.55
2022-08-05T12:16:15.028Z,25.85
2022-08-05T12:18:52.427Z,26.29
2022-08-05T12:21:30.621Z,26.41
2022-08-05T12:24:07.121Z,26.33
2022-08-05T12:26:50.000Z,26.43
2022-08-05T12:29:22.998Z,26.53
2022-08-05T12:31:59.740Z,26.49
2022-08-05T12:34:33.377Z,26.26
2022-08-05T12:37:10.820Z,26.27
2022-08-05T12:39:44.799Z,26.38
2022-08-05T12:42:19.634Z,26.51
2022-08-05T12:44:47.565Z,26.67
2022-08-05T12:47:26.225Z,26.59
2022-08-05T12:50:03.448Z,26.58
2022-08-05T12:52:41.692Z,26.70
2022-08-05T12:55:25.357Z,26.76
2022-08-05T12:58:51.395Z,26.66
2022-08-05T13:02:01.736Z,26.54
2022-08-05T13:03:43.067Z,26.46
2022-08-05T13:06:16.128Z,26.50
2022-08-05T13:08:52.010Z,26.47
2022-08-05T13:11:59.967Z,26.39
2022-08-05T13:14:19.566Z,26.47
2022-08-05T13:16:56.390Z,26.66
2022-08-05T13:19:27.252Z,26.79
2022-08-05T13:22:13.832Z,26.85
2022-08-05T13:24:57.991Z,26.88
2022-08-05T13:27:38.716Z,26.99
2022-08-05T13:30:35.105Z,26.99
2022-08-05T13:32:56.495Z,27.03
2022-08-05T13:35:42.734Z,27.04
2022-08-05T13:38:14.528Z,26.94
2022-08-05T13:40:55.192Z,27.00
2022-08-05T13:43:22.373Z,27.07
2022-08-05T13:45:49.174Z,27.19
2022-08-05T13:48:57.601Z,27.22
2022-08-05T13:51:09.554Z,27.42
2022-08-05T13:53:47.728Z,27.36
2022-08-05T13:56:18.474Z,27.46
2022-08-05T13:58:53.476Z,27.63
2022-08-05T14:01:25.946Z,27.77
2022-08-05T14:04:22.096Z,27.93
2022-08-05T14:07:11.897Z,27.99
2022-08-05T14:09:46.092Z,27.96
2022-08-05T14:12:17.872Z,27.78
2022-08-05T14:14:58.559Z,27.79
2022-08-05T14:17:26.618Z,27.89
2022-08-05T14:20:00.905Z,28.09
2022-08-05T14:22:30.467Z,28.25
2022-08-05T14:25:01.708Z,28.27
2022-08-05T14:27:32.867Z,28.52
2022-08-05T14:29:59.690Z,28.72
2022-08-05T14:32:27.754Z,28.61
2022-08-05T14:34:57.042Z,28.31
2022-08-05T14:37:49.039Z,28.04
2022-08-05T14:40:14.071Z,27.85
2022-08-05T14:42:43.324Z,27.73
2022-08-05T14:45:10.529Z,27.68
2022-08-05T14:48:03.700Z,27.89
2022-08-05T14:50:25.339Z,28.31
2022-08-05T14:52:58.762Z,28.50
2022-08-05T14:55:39.580Z,28.33
2022-08-05T14:58:11.575Z,28.35
2022-08-05T15:00:59.092Z,28.22
2022-08-05T15:03:33.778Z,28.04
2022-08-05T15:06:08.014Z,27.84
2022-08-05T15:08:59.146Z,27.67
2022-08-05T15:11:51.196Z,27.69
2022-08-05T15:14:20.038Z,27.71
2022-08-05T15:17:00.777Z,27.65
2022-08-05T15:19:27.380Z,27.51
2022-08-05T15:21:54.516Z,27.34
2022-08-05T15:24:27.030Z,27.30
2022-08-05T15:26:53.602Z,27.30
2022-08-05T15:29:22.421Z,27.32
2022-08-05T15:31:53.103Z,27.36
2022-08-05T15:34:33.161Z,27.32
2022-08-05T15:37:07.021Z,27.26
2022-08-05T15:41:04.618Z,27.21
2022-08-05T15:42:53.549Z,27.27
2022-08-05T15:45:15.334Z,27.26
2022-08-05T15:47:43.578Z,27.25
2022-08-05T15:50:15.275Z,27.22
2022-08-05T15:52:52.948Z,27.16
2022-08-05T15:55:24.867Z,27.33
2022-08-05T15:58:08.309Z,27.57
2022-08-05T16:00:50.553Z,27.77
2022-08-05T16:03:21.938Z,27.96
2022-08-05T16:05:52.568Z,28.80
2022-08-05T16:08:19.417Z,29.59
2022-08-05T16:10:46.052Z,29.70
2022-08-05T16:13:23.239Z,29.65
2022-08-05T16:15:51.897Z,29.31
2022-08-05T16:18:19.251Z,29.44
2022-08-05T16:20:46.491Z,29.94
2022-08-05T16:23:13.063Z,30.59
2022-08-05T16:25:40.153Z,31.26
2022-08-05T16:28:09.695Z,31.74
2022-08-05T16:30:37.075Z,32.07
2022-08-05T16:33:03.811Z,32.38
2022-08-05T16:35:33.694Z,32.40
2022-08-05T16:38:18.813Z,32.31
2022-08-05T16:41:00.578Z,32.58
2022-08-05T16:43:32.626Z,32.63
2022-08-05T16:46:06.977Z,33.21
2022-08-05T16:48:39.607Z,33.44
2022-08-05T16:51:09.684Z,33.52
2022-08-05T16:54:04.304Z,33.31
2022-08-05T16:56:27.537Z,33.08
2022-08-05T16:58:54.105Z,32.18
2022-08-05T17:01:20.957Z,31.73
2022-08-05T17:03:47.700Z,31.88
2022-08-05T17:06:16.430Z,31.91
2022-08-05T17:08:52.913Z,32.32
2022-08-05T17:11:25.357Z,32.53
2022-08-05T17:14:00.695Z,32.35
2022-08-05T17:16:35.902Z,32.02
2022-08-05T17:19:07.689Z,31.26
2022-08-05T17:21:37.426Z,30.39
2022-08-05T17:24:28.419Z,29.62
2022-08-05T17:26:56.693Z,29.05
2022-08-05T17:29:33.059Z,28.86
2022-08-05T17:32:11.953Z,28.72
2022-08-05T17:34:47.747Z,28.53
2022-08-05T17:37:41.889Z,28.20
2022-08-05T17:40:10.379Z,27.88
2022-08-05T17:42:41.342Z,27.72
2022-08-05T17:45:20.287Z,27.53
2022-08-05T17:47:53.502Z,27.35
2022-08-05T17:50:28.715Z,27.18
2022-08-05T17:52:59.047Z,27.07
2022-08-05T17:55:34.137Z,26.94
2022-08-05T17:58:05.895Z,26.68
2022-08-05T18:00:34.564Z,26.47
2022-08-05T18:03:02.130Z,26.34
2022-08-05T18:05:35.248Z,26.16
2022-08-05T18:08:02.799Z,26.04
2022-08-05T18:10:32.048Z,25.91
2022-08-05T18:13:00.522Z,25.81
2022-08-05T18:15:31.215Z,25.74
2022-08-05T18:18:05.679Z,25.66
2022-08-05T18:20:37.896Z,25.57
2022-08-05T18:23:11.378Z,25.43
2022-08-05T18:25:44.064Z,25.30
2022-08-05T18:28:12.155Z,25.22
2022-08-05T18:30:51.054Z,25.17
2022-08-05T18:33:22.706Z,25.10
2022-08-05T18:36:03.944Z,25.01
2022-08-05T18:38:31.938Z,24.90
2022-08-05T18:41:55.981Z,24.87
2022-08-05T18:43:48.536Z,24.80
2022-08-05T18:46:19.564Z,24.71
2022-08-05T18:48:53.683Z,24.62
2022-08-05T18:52:05.611Z,24.56
2022-08-05T18:54:31.400Z,24.51
2022-08-05T18:57:01.987Z,24.43
2022-08-05T18:59:44.278Z,24.30
2022-08-05T19:02:27.446Z,24.16
2022-08-05T19:05:02.167Z,24.05
2022-08-05T19:07:45.614Z,23.94
2022-08-05T19:10:14.372Z,23.85
2022-08-05T19:12:41.373Z,23.76
2022-08-05T19:15:10.706Z,23.65
2022-08-05T19:18:08.549Z,23.57
2022-08-05T19:20:41.600Z,23.47
2022-08-05T19:23:22.609Z,23.41
2022-08-05T19:26:02.070Z,23.34
2022-08-05T19:28:30.782Z,23.32
2022-08-05T19:30:58.148Z,23.26
2022-08-05T19:33:36.395Z,23.22
2022-08-05T19:36:06.597Z,23.17
2022-08-05T19:38:37.307Z,23.08
2022-08-05T19:41:07.054Z,23.02
2022-08-05T19:44:04.583Z,22.96
2022-08-05T19:46:30.169Z,22.94
2022-08-05T19:49:01.139Z,22.89
2022-08-05T19:52:05.821Z,22.82
2022-08-05T19:54:22.849Z,22.76
2022-08-05T19:56:58.744Z,22.68
2022-08-05T19:59:55.505Z,22.63
2022-08-05T20:02:12.995Z,22.60
2022-08-05T20:04:43.167Z,22.57
2022-08-05T20:07:13.281Z,22.51
2022-08-05T20:09:54.657Z,22.45
2022-08-05T20:12:22.717Z,22.42
2022-08-05T20:14:52.257Z,22.38
2022-08-05T20:17:23.602Z,22.34
2022-08-05T20:19:57.336Z,22.32
2022-08-05T20:22:26.974Z,22.32
2022-08-05T20:24:54.620Z,22.31
2022-08-05T20:27:26.726Z,22.29
2022-08-05T20:29:58.205Z,22.22
2022-08-05T20:32:27.052Z,22.17
2022-08-05T20:34:54.504Z,22.11
2022-08-05T20:38:04.742Z,22.06
2022-08-05T20:40:08.843Z,22.00
2022-08-05T20:42:35.640Z,21.95
2022-08-05T20:45:02.702Z,21.92
2022-08-05T20:47:32.102Z,21.87
2022-08-05T20:49:59.448Z,21.85
2022-08-05T20:52:26.336Z,21.85
2022-08-05T20:54:59.161Z,21.82
2022-08-05T20:57:43.941Z,21.76
2022-08-05T21:00:35.086Z,21.68
2022-08-05T21:03:07.385Z,21.61
2022-08-05T21:05:48.083Z,21.55
2022-08-05T21:08:28.192Z,21.50
2022-08-05T21:11:09.903Z,21.45
2022-08-05T21:13:56.501Z,21.42
2022-08-05T21:16:29.595Z,21.34
2022-08-05T21:19:00.527Z,21.32
2022-08-05T21:21:39.220Z,21.29
2022-08-05T21:24:12.714Z,21.27
2022-08-05T21:26:41.344Z,21.28
2022-08-05T21:29:10.144Z,21.25
2022-08-05T21:31:43.499Z,21.19
2022-08-05T21:34:11.039Z,21.13
2022-08-05T21:36:38.146Z,21.09
2022-08-05T21:39:04.911Z,21.06
2022-08-05T21:41:33.926Z,21.05
2022-08-05T21:44:04.101Z,21.05
2022-08-05T21:46:34.229Z,21.01
2022-08-05T21:49:04.610Z,21.00
2022-08-05T21:52:16.015Z,20.98
2022-08-05T21:54:28.007Z,20.93
2022-08-05T21:57:29.265Z,20.88
2022-08-05T22:00:01.919Z,20.86
2022-08-05T22:02:30.366Z,20.80
2022-08-05T22:04:58.391Z,20.76
2022-08-05T22:07:40.042Z,20.73
2022-08-05T22:10:14.104Z,20.68
2022-08-05T22:12:44.975Z,20.65
2022-08-05T22:16:01.293Z,20.60
2022-08-05T22:18:05.064Z,20.60
2022-08-05T22:20:31.783Z,20.58
2022-08-05T22:23:21.231Z,20.55
2022-08-05T22:26:09.648Z,20.53
2022-08-05T22:28:38.714Z,20.49
2022-08-05T22:31:05.982Z,20.50
2022-08-05T22:33:57.134Z,20.51
2022-08-05T22:36:24.126Z,20.48
2022-08-05T22:38:51.515Z,20.47
2022-08-05T22:42:05.522Z,20.46
2022-08-05T22:44:08.643Z,20.39
2022-08-05T22:46:39.764Z,20.32
2022-08-05T22:49:23.020Z,20.27
2022-08-05T22:52:06.019Z,20.23
2022-08-05T22:54:37.671Z,20.20
2022-08-05T22:57:06.271Z,20.17
2022-08-05T22:59:43.569Z,20.13
2022-08-05T23:02:18.200Z,20.12
2022-08-05T23:04:52.156Z,20.11
2022-08-05T23:07:22.162Z,20.08
2022-08-05T23:09:57.805Z,20.07
2022-08-05T23:12:32.732Z,20.06
2022-08-05T23:15:03.565Z,20.03
2022-08-05T23:17:34.405Z,20.00
2022-08-05T23:20:15.567Z,19.96
2022-08-05T23:22:47.742Z,19.92
2022-08-05T23:25:54.939Z,19.89
2022-08-05T23:28:06.941Z,19.84
2022-08-05T23:30:40.226Z,19.79
2022-08-05T23:33:16.189Z,19.74
2022-08-05T23:35:50.226Z,19.68
2022-08-05T23:38:17.034Z,19.64
2022-08-05T23:40:49.571Z,19.60
2022-08-05T23:43:25.387Z,19.55
2022-08-05T23:46:03.879Z,19.50
2022-08-05T23:48:30.435Z,19.45
2022-08-05T23:50:57.002Z,19.42
2022-08-05T23:53:28.569Z,19.38
2022-08-05T23:56:12.016Z,19.32
2022-08-05T23:58:38.737Z,19.30
